aviador You're here:

OIBB Decoded Metar

BUSHEHR in IRAN
Report Time2017-12-18 08:30:00
UTC Time2017-12-18 09:01:35
Flight Rules mvfr MVFR
Wind350° at 10 kt
W.Decomp.*RWY 31: 8.0 kt HW 6.0 kt RCW
W.Rank350° ranks 7
Current wind is above 350° avg. (8.1)
Visibility7000 m
Phenomena:N/A
Clouds:N/A
Expected CloudBase > 4,400 ft AGL from Temp-Dew spread
CeilingNone
Temp21°C (ISA +6)
Dew Point10°C (50% RH)
AAT17.5°C
QNH1022 hPa
Density Alt640 ft
Elevation62 ft
Report Wrong Elevation
Raw Report
OIBB 180830Z 35010KT 7000 NSC 21/10 Q1022 A3020=

Extra information for OIBB:More info

Metar Taf Metar & Taf Last 4 Metars F.Rules Stats Wind Profile Meteogram Temp Stats Airport Information Weather charts Add Link Nearby VenuesMetar ALERT Operation Metar Decoded Social comments